Aeroporto :
LOGIN :

Iscrizione | Disclaimer

   EN    FR    IT 

 










Sommario :    VFR   VFR Marginale   IFR   IFR Intensivo   IFR Molto Intensivo
Visibilità : 
Base nubi : 
>= 8 km
>= 3000ft
5 / 8 km
1000 / 3000 ft
1500m / 5 km
500 / 1000 ft
800 / 1500m
200 / 500 ft
< 800m
< 200 ft
Simboli :   Temporali  Nebbia  Neve Forte  Precipitazioni Forti  Vento > 20 kt
SIGMETs :   Varie  Temporali  Ghiacco  Turbolenza  Onda orograficha  Ceneri Vulcaniche






- Altitudine del aeroporto : 80 ft
- Codice IATA : LPL


EGGP - Liverpool John Lennon

ULTIMO METAR :
  • 190250Z 33005KT CAVOK 04/03 Q1040

METARs OBSOLETI :
  • 190220Z 32005KT CAVOK 03/03 Q1040
  • 190150Z 34006KT CAVOK 04/03 Q1039
  • 190120Z 34006KT CAVOK 05/04 Q1039
  • 190050Z 34006KT CAVOK 04/03 Q1038
  • 190020Z 32007KT CAVOK 04/03 Q1038
  • 182350Z 35005KT 9999 FEW020 05/04 Q1038

TAF TAF EGGP
Valido dal 19 a 00 ore il 20 a 00 ore UTC


182258Z 1900/1924 29006KT 9999 FEW030
TEMPO 1900/1901 6000
BECMG 1901/1904 3000 BR MIFG
PROB30 1904/1911 0300 FZFG VV///
BECMG 1911/1914 6000 NSW
BECMG 1914/1917 9999
PROB30 1917/1924 6000
ATIS : +44 151 907 2000 (option 5 or ext 5150)
Met : +44 871 750 5150



MetMap, La meteo Aeronautica in un colpo d'occhio ! - Copyright ORBIFLY Dicembre 2007 - Disclaimer

ORBIFLY MET'MAP TEAM :

Programmazione e sviluppo : Alexandra Zaïnal
Concezione : Baudouin d'Aumeries
Aiuto per la programmazione : Marc-Olivier Méhu
Supporto tecnico e logistico : Manuel Goepfert
Aiuto per la traduzione : Arnaldo La Scala

Contatto : metmap@orbifly.com




FONTI E CREDITI :

   NOAA